Kezdőlap
METAR-TAF:

METAR-TAF

Repülőterek :

Webster City Municipal Airport

Webster City, Iowa, Amerikai Egyesült Államok

földrajzi szélesség: 42-26N, földrajzi hosszúság: 093-52W, magasság: 342 m

Jelenlegi meteorológiai megfigyelések

A jelentés 21 perccel ezelõtt készült, 06:35 UTC
Nyugat-északnyugati szél 10 kt széllökések: 16 kt
Hőmérséklet 19°C
Páratartalom 94%
Légköri nyomás 1007 hPa
Látótávolság: 16.1 km
Kevés felhő 1300 lábon
Szórványos felhőzet 5500 lábon
Borult 11000 lábon

METAR: KEBS 210635Z AUTO 29010G16KT 10SM FEW013 SCT055 OVC110 19/18 A2974 RMK AO2

Idő: 01:56 (06:56 UTC)


TAF: hiányzik

Meteorológiai megfigyelések és előrejelzések több, mint 4000 repülőtéren (METAR és TAF jelentéseket).

A térképen piros és sárga pontok jelzik az elérhető meteorológiai állomásokat.

Mozgassa az egeret a pont fölött, hogy megjelenjen az állomás neve.

Azután kattintson az időjárási megfigyelések és előrejelzések megtekintéséhez.

A térkép megváltoztatása: kattintson a fekete keresztel jelölt zöld gombra ráközelítéshez, a vonallal jelölt zöld gombra távolításhoz, vagy a zöld nyilakra a szomszédos térképek eléréséhez.


METAR-TAF: